createdAt,value
2023-02-08T00:01:15.869Z,5.47
2023-02-08T00:03:45.935Z,5.20
2023-02-08T00:06:13.033Z,5.80
2023-02-08T00:08:42.270Z,4.90
2023-02-08T00:11:12.504Z,5.07
2023-02-08T00:13:44.325Z,5.10
2023-02-08T00:16:13.787Z,5.40
2023-02-08T00:18:40.918Z,5.27
2023-02-08T00:21:09.296Z,4.97
2023-02-08T00:23:39.019Z,5.17
2023-02-08T00:26:06.037Z,5.30
2023-02-08T00:28:32.917Z,4.90
2023-02-08T00:31:02.035Z,5.63
2023-02-08T00:33:31.274Z,6.50
2023-02-08T00:36:02.468Z,5.70
2023-02-08T00:38:31.858Z,4.80
2023-02-08T00:40:58.611Z,4.90
2023-02-08T00:43:25.326Z,5.07
2023-02-08T00:45:56.422Z,4.73
2023-02-08T00:48:26.192Z,5.70
2023-02-08T00:51:03.212Z,5.37
2023-02-08T00:53:29.978Z,4.93
2023-02-08T00:55:57.100Z,4.93
2023-02-08T00:58:24.189Z,5.27
2023-02-08T01:00:52.952Z,4.90
2023-02-08T01:03:24.192Z,5.00
2023-02-08T01:05:53.582Z,5.47
2023-02-08T01:08:21.273Z,5.10
2023-02-08T01:10:47.948Z,5.20
2023-02-08T01:13:17.169Z,4.93
2023-02-08T01:15:43.998Z,4.87
2023-02-08T01:18:12.910Z,5.77
2023-02-08T01:20:39.845Z,5.33
2023-02-08T01:23:06.653Z,5.03
2023-02-08T01:25:35.715Z,5.90
2023-02-08T01:28:02.426Z,6.20
2023-02-08T01:30:29.627Z,5.40
2023-02-08T01:32:58.959Z,5.60
2023-02-08T01:35:26.031Z,5.20
2023-02-08T01:37:55.154Z,5.37
2023-02-08T01:40:24.002Z,6.20
2023-02-08T01:42:52.944Z,6.10
2023-02-08T01:45:26.145Z,4.87
2023-02-08T01:47:57.518Z,4.80
2023-02-08T01:50:30.916Z,5.20
2023-02-08T01:52:58.201Z,5.10
2023-02-08T01:55:33.651Z,5.13
2023-02-08T01:58:03.637Z,4.90
2023-02-08T02:00:32.097Z,5.37
2023-02-08T02:03:00.507Z,5.33
2023-02-08T02:05:38.060Z,5.30
2023-02-08T02:08:05.517Z,5.00
2023-02-08T02:10:34.044Z,5.47
2023-02-08T02:13:14.386Z,5.17
2023-02-08T02:15:45.358Z,4.97
2023-02-08T02:18:16.207Z,5.13
2023-02-08T02:20:49.328Z,4.83
2023-02-08T02:23:38.598Z,6.07
2023-02-08T02:26:29.921Z,4.83
2023-02-08T02:29:06.247Z,5.37
2023-02-08T02:31:57.618Z,4.70
2023-02-08T02:34:55.489Z,4.70
2023-02-08T02:37:53.196Z,5.27
2023-02-08T02:40:44.870Z,5.07
2023-02-08T02:43:41.864Z,5.33
2023-02-08T02:46:30.683Z,4.63
2023-02-08T02:49:17.832Z,4.77
2023-02-08T02:51:58.226Z,4.93
2023-02-08T02:54:27.500Z,4.87
2023-02-08T02:56:56.948Z,4.93
2023-02-08T02:59:26.361Z,5.27
2023-02-08T03:01:55.012Z,5.40
2023-02-08T03:04:34.575Z,4.70
2023-02-08T03:07:06.399Z,4.97
2023-02-08T03:09:45.173Z,5.23
2023-02-08T03:12:19.428Z,4.87
2023-02-08T03:15:11.743Z,5.07
2023-02-08T03:18:01.810Z,4.73
2023-02-08T03:20:31.640Z,5.95
2023-02-08T03:23:10.055Z,5.10
2023-02-08T03:25:52.200Z,4.63
2023-02-08T03:28:21.769Z,5.30
2023-02-08T03:31:11.213Z,4.63
2023-02-08T03:34:01.643Z,5.03
2023-02-08T03:37:00.094Z,5.97
2023-02-08T03:39:30.321Z,5.30
2023-02-08T03:42:01.441Z,4.77
2023-02-08T03:44:39.302Z,5.30
2023-02-08T03:47:10.571Z,4.80
2023-02-08T03:49:37.993Z,5.13
2023-02-08T03:52:07.265Z,4.97
2023-02-08T03:54:38.870Z,4.77
2023-02-08T03:57:23.994Z,4.57
2023-02-08T04:00:01.990Z,5.00
2023-02-08T04:02:33.086Z,4.40
2023-02-08T04:05:05.675Z,4.40
2023-02-08T04:07:32.473Z,4.50
2023-02-08T04:09:59.208Z,4.43
2023-02-08T04:12:25.884Z,4.70
2023-02-08T04:14:52.592Z,5.00
2023-02-08T04:17:19.278Z,5.53
2023-02-08T04:19:48.096Z,4.87
2023-02-08T04:22:17.605Z,5.10
2023-02-08T04:24:44.696Z,4.87
2023-02-08T04:27:13.846Z,4.73
2023-02-08T04:29:43.466Z,5.00
2023-02-08T04:32:13.387Z,5.40
2023-02-08T04:34:40.269Z,4.60
2023-02-08T04:37:11.018Z,4.93
2023-02-08T04:39:38.138Z,4.83
2023-02-08T04:42:04.828Z,5.30
2023-02-08T04:44:33.749Z,4.07
2023-02-08T04:47:00.916Z,5.13
2023-02-08T04:49:27.700Z,5.37
2023-02-08T04:51:54.436Z,4.73
2023-02-08T04:54:21.481Z,4.83
2023-02-08T04:56:50.457Z,4.50
2023-02-08T04:59:17.102Z,4.63
2023-02-08T05:01:43.875Z,5.07
2023-02-08T05:04:12.764Z,4.70
2023-02-08T05:06:41.626Z,4.57
2023-02-08T05:09:09.655Z,4.80
2023-02-08T05:11:37.243Z,4.90
2023-02-08T05:14:04.920Z,4.47
2023-02-08T05:16:31.701Z,4.73
2023-02-08T05:18:58.740Z,4.93
2023-02-08T05:21:27.680Z,4.53
2023-02-08T05:23:54.805Z,4.67
2023-02-08T05:26:23.055Z,4.93
2023-02-08T05:28:54.288Z,4.47
2023-02-08T05:31:24.131Z,4.50
2023-02-08T05:33:52.604Z,5.00
2023-02-08T05:36:20.709Z,4.67
2023-02-08T05:38:49.773Z,4.73
2023-02-08T05:41:19.738Z,4.70
2023-02-08T05:43:46.404Z,4.80
2023-02-08T05:46:13.365Z,4.93
2023-02-08T05:48:40.337Z,5.10
2023-02-08T05:51:09.508Z,4.40
2023-02-08T05:53:36.874Z,4.87
2023-02-08T05:56:04.505Z,5.07
2023-02-08T05:58:31.583Z,4.90
2023-02-08T06:00:58.808Z,4.20
2023-02-08T06:03:25.922Z,5.23
2023-02-08T06:05:53.147Z,4.73
2023-02-08T06:08:22.311Z,4.97
2023-02-08T06:10:51.653Z,5.00
2023-02-08T06:13:18.302Z,4.87
2023-02-08T06:15:47.438Z,5.82
2023-02-08T06:18:16.892Z,5.00
2023-02-08T06:20:44.064Z,4.97
2023-02-08T06:23:13.001Z,4.70
2023-02-08T06:25:39.642Z,5.10
2023-02-08T06:28:06.942Z,4.70
2023-02-08T06:30:34.180Z,5.35
2023-02-08T06:33:01.278Z,4.83
2023-02-08T06:35:28.329Z,5.37
2023-02-08T06:37:55.649Z,4.80
2023-02-08T06:40:22.503Z,4.10
2023-02-08T06:42:50.402Z,5.13
2023-02-08T06:45:19.535Z,4.63
2023-02-08T06:47:46.241Z,4.67
2023-02-08T06:50:14.680Z,4.77
2023-02-08T06:52:41.391Z,4.80
2023-02-08T06:55:08.229Z,4.57
2023-02-08T06:57:34.878Z,5.03
2023-02-08T07:00:03.705Z,4.60
2023-02-08T07:02:30.960Z,4.63
2023-02-08T07:04:57.664Z,5.57
2023-02-08T07:07:26.487Z,5.13
2023-02-08T07:09:55.458Z,5.03
2023-02-08T07:12:24.452Z,4.27
2023-02-08T07:14:51.116Z,4.85
2023-02-08T07:17:17.777Z,4.97
2023-02-08T07:19:46.706Z,4.80
2023-02-08T07:22:15.604Z,5.10
2023-02-08T07:24:42.970Z,5.20
2023-02-08T07:27:15.686Z,5.10
2023-02-08T07:29:42.774Z,5.07
2023-02-08T07:32:13.446Z,5.20
2023-02-08T07:34:42.690Z,5.37
2023-02-08T07:37:09.389Z,5.10
2023-02-08T07:39:36.097Z,5.83
2023-02-08T07:42:07.839Z,5.93
2023-02-08T07:44:34.691Z,5.77
2023-02-08T07:47:01.996Z,6.40
2023-02-08T07:49:28.765Z,5.90
2023-02-08T07:51:55.458Z,5.77
2023-02-08T07:54:22.257Z,7.20
2023-02-08T07:56:48.904Z,7.50
2023-02-08T07:59:15.606Z,7.20
2023-02-08T08:01:46.818Z,6.50
2023-02-08T08:04:13.633Z,8.00
2023-02-08T08:06:42.581Z,7.33
2023-02-08T08:09:09.369Z,6.87
2023-02-08T08:11:36.030Z,7.57
2023-02-08T08:14:02.737Z,8.82
2023-02-08T08:16:29.533Z,8.13
2023-02-08T08:18:56.280Z,7.40
2023-02-08T08:21:22.992Z,8.60
2023-02-08T08:23:49.777Z,7.83
2023-02-08T08:26:20.955Z,8.77
2023-02-08T08:28:50.862Z,8.63
2023-02-08T08:31:20.363Z,10.25
2023-02-08T08:33:47.763Z,9.27
2023-02-08T08:36:14.784Z,9.50
2023-02-08T08:38:41.785Z,9.43
2023-02-08T08:41:10.712Z,9.50
2023-02-08T08:43:41.880Z,9.47
2023-02-08T08:46:09.413Z,9.27
2023-02-08T08:48:38.228Z,9.77
2023-02-08T08:51:06.186Z,10.87
2023-02-08T08:53:36.919Z,10.27
2023-02-08T08:56:04.675Z,10.17
2023-02-08T08:58:31.349Z,10.33
2023-02-08T09:01:03.661Z,11.13
2023-02-08T09:03:30.787Z,10.77
2023-02-08T09:05:57.670Z,11.27
2023-02-08T09:08:26.833Z,11.95
2023-02-08T09:10:53.649Z,11.77
2023-02-08T09:13:23.048Z,11.07
2023-02-08T09:15:52.297Z,11.40
2023-02-08T09:18:19.012Z,11.40
2023-02-08T09:20:48.149Z,11.17
2023-02-08T09:23:17.249Z,11.00
2023-02-08T09:25:50.071Z,12.80
2023-02-08T09:28:19.277Z,11.57
2023-02-08T09:30:48.277Z,10.17
2023-02-08T09:33:15.002Z,8.87
2023-02-08T09:35:41.959Z,8.90
2023-02-08T09:38:08.772Z,9.57
2023-02-08T09:41:06.521Z,10.10
2023-02-08T09:44:00.104Z,9.67
2023-02-08T09:46:29.832Z,9.30
2023-02-08T09:49:04.251Z,10.00
2023-02-08T09:51:58.771Z,9.37
2023-02-08T09:54:45.554Z,8.37
2023-02-08T09:57:20.137Z,8.10
2023-02-08T09:59:57.081Z,9.65
2023-02-08T10:02:28.774Z,8.37
2023-02-08T10:05:03.039Z,7.97
2023-02-08T10:07:30.830Z,7.93
2023-02-08T10:10:01.811Z,7.80
2023-02-08T10:12:45.449Z,8.57
2023-02-08T10:15:47.476Z,8.35
2023-02-08T10:18:29.413Z,7.80
2023-02-08T10:21:17.354Z,6.97
2023-02-08T10:24:04.874Z,7.77
2023-02-08T10:26:50.986Z,7.10
2023-02-08T10:29:53.863Z,7.00
2023-02-08T10:32:38.484Z,7.03
2023-02-08T10:35:11.462Z,6.67
2023-02-08T10:37:44.258Z,6.70
2023-02-08T10:40:38.215Z,7.00
2023-02-08T10:43:15.680Z,6.20
2023-02-08T10:45:54.585Z,7.10
2023-02-08T10:48:48.402Z,7.10
2023-02-08T10:51:21.745Z,6.47
2023-02-08T10:53:48.860Z,6.40
2023-02-08T10:56:28.336Z,6.07
2023-02-08T10:58:57.704Z,6.60
2023-02-08T11:01:26.029Z,6.73
2023-02-08T11:04:11.376Z,6.10
2023-02-08T11:06:39.431Z,6.17
2023-02-08T11:09:19.979Z,6.47
2023-02-08T11:11:46.813Z,6.23
2023-02-08T11:14:19.071Z,6.60
2023-02-08T11:16:59.167Z,6.33
2023-02-08T11:19:35.388Z,6.20
2023-02-08T11:22:05.895Z,6.37
2023-02-08T11:24:43.431Z,6.03
2023-02-08T11:27:31.253Z,6.50
2023-02-08T11:30:16.025Z,5.93
2023-02-08T11:32:47.393Z,6.17
2023-02-08T11:35:21.977Z,6.27
2023-02-08T11:37:51.063Z,5.93
2023-02-08T11:40:29.263Z,5.87
2023-02-08T11:42:58.644Z,6.90
2023-02-08T11:45:30.044Z,7.20
2023-02-08T11:47:57.785Z,6.30
2023-02-08T11:50:31.526Z,6.90
2023-02-08T11:53:04.248Z,5.83
2023-02-08T11:55:34.122Z,6.37
2023-02-08T11:58:06.518Z,6.67
2023-02-08T12:00:35.729Z,6.67
2023-02-08T12:03:23.823Z,5.50
2023-02-08T12:06:19.761Z,6.23
2023-02-08T12:09:04.290Z,6.70
2023-02-08T12:11:46.417Z,7.22
2023-02-08T12:14:37.302Z,6.73
2023-02-08T12:17:24.506Z,6.37
2023-02-08T12:20:23.169Z,7.17
2023-02-08T12:23:20.190Z,6.63
2023-02-08T12:26:16.208Z,6.13
2023-02-08T12:28:46.097Z,6.43
2023-02-08T12:31:31.020Z,6.03
2023-02-08T12:34:19.049Z,6.33
2023-02-08T12:37:31.714Z,6.83
2023-02-08T12:40:42.375Z,5.87
2023-02-08T12:43:30.431Z,6.23
2023-02-08T12:46:06.011Z,6.27
2023-02-08T12:49:07.872Z,6.47
2023-02-08T12:51:43.588Z,6.97
2023-02-08T12:54:18.884Z,6.43
2023-02-08T12:57:01.327Z,6.50
2023-02-08T12:59:41.449Z,6.30
2023-02-08T13:02:29.696Z,5.33
2023-02-08T13:05:00.191Z,5.50
2023-02-08T13:07:38.472Z,5.67
2023-02-08T13:10:27.806Z,6.27
2023-02-08T13:13:01.714Z,5.60
2023-02-08T13:15:42.240Z,6.53
2023-02-08T13:18:18.593Z,5.47
2023-02-08T13:20:53.563Z,5.87
2023-02-08T13:23:27.928Z,5.17
2023-02-08T13:26:04.266Z,5.53
2023-02-08T13:28:31.058Z,5.70
2023-02-08T13:31:14.346Z,5.37
2023-02-08T13:34:00.792Z,6.15
2023-02-08T13:36:39.834Z,5.47
2023-02-08T13:39:26.770Z,5.37
2023-02-08T13:41:56.344Z,5.00
2023-02-08T13:44:33.909Z,5.10
2023-02-08T13:47:01.081Z,5.05
2023-02-08T13:50:14.864Z,4.37
2023-02-08T13:52:50.243Z,5.10
2023-02-08T13:55:30.539Z,4.50
2023-02-08T13:58:02.527Z,4.50
2023-02-08T14:00:37.949Z,4.87
2023-02-08T14:03:24.674Z,4.87
2023-02-08T14:06:15.031Z,4.30
2023-02-08T14:09:03.584Z,4.23
2023-02-08T14:11:48.660Z,4.57
2023-02-08T14:14:29.270Z,5.50
2023-02-08T14:17:05.163Z,4.20
2023-02-08T14:19:33.983Z,4.33
2023-02-08T14:22:17.815Z,4.17
2023-02-08T14:24:58.786Z,4.73
2023-02-08T14:27:30.143Z,4.82
2023-02-08T14:30:02.916Z,4.30
2023-02-08T14:32:33.606Z,4.10
2023-02-08T14:35:14.974Z,4.10
2023-02-08T14:37:45.937Z,3.63
2023-02-08T14:40:24.358Z,4.20
2023-02-08T14:43:04.604Z,4.07
2023-02-08T14:45:34.996Z,3.47
2023-02-08T14:48:32.809Z,4.17
2023-02-08T14:51:11.406Z,4.13
2023-02-08T14:53:55.081Z,4.60
2023-02-08T14:56:28.052Z,3.83
2023-02-08T14:59:13.516Z,4.20
2023-02-08T15:01:44.646Z,4.73
2023-02-08T15:04:14.599Z,5.17
2023-02-08T15:06:50.217Z,4.10
2023-02-08T15:09:19.981Z,4.27
2023-02-08T15:12:00.160Z,4.20
2023-02-08T15:14:30.062Z,4.40
2023-02-08T15:16:57.447Z,4.40
2023-02-08T15:19:38.482Z,4.20
2023-02-08T15:22:24.898Z,4.50
2023-02-08T15:25:01.496Z,4.37
2023-02-08T15:27:32.156Z,4.40
2023-02-08T15:29:59.162Z,7.80
2023-02-08T15:32:29.704Z,8.93
2023-02-08T15:35:01.892Z,10.13
2023-02-08T15:37:35.427Z,9.47
2023-02-08T15:40:06.916Z,7.90
2023-02-08T15:42:34.164Z,7.70
2023-02-08T15:45:02.735Z,7.97
2023-02-08T15:47:35.978Z,7.40
2023-02-08T15:50:07.643Z,9.82
2023-02-08T15:52:36.591Z,8.07
2023-02-08T15:55:06.675Z,7.30
2023-02-08T15:57:35.547Z,7.47
2023-02-08T16:00:12.484Z,7.77
2023-02-08T16:02:43.308Z,7.13
2023-02-08T16:05:30.561Z,7.70
2023-02-08T16:08:03.935Z,7.07
2023-02-08T16:10:42.778Z,6.10
2023-02-08T16:13:24.591Z,6.67
2023-02-08T16:16:07.191Z,7.43
2023-02-08T16:18:47.776Z,7.17
2023-02-08T16:21:42.526Z,6.73
2023-02-08T16:24:12.123Z,6.90
2023-02-08T16:27:02.905Z,6.37
2023-02-08T16:29:39.197Z,7.23
2023-02-08T16:32:22.483Z,6.67
2023-02-08T16:34:49.254Z,6.93
2023-02-08T16:37:35.455Z,7.10
2023-02-08T16:40:21.707Z,6.27
2023-02-08T16:42:48.434Z,7.00
2023-02-08T16:45:17.868Z,8.80
2023-02-08T16:47:54.206Z,6.83
2023-02-08T16:50:27.045Z,7.23
2023-02-08T16:52:56.243Z,7.70
2023-02-08T16:55:26.586Z,7.67
2023-02-08T16:57:55.865Z,7.87
2023-02-08T17:00:22.616Z,7.97
2023-02-08T17:02:49.637Z,8.10
2023-02-08T17:05:17.182Z,6.90
2023-02-08T17:07:43.996Z,7.47
2023-02-08T17:10:31.420Z,7.33
2023-02-08T17:13:18.339Z,8.27
2023-02-08T17:15:47.824Z,8.23
2023-02-08T17:18:14.740Z,7.93
2023-02-08T17:20:47.168Z,8.30
2023-02-08T17:23:16.479Z,7.87
2023-02-08T17:25:46.130Z,7.90
2023-02-08T17:28:20.002Z,8.00
2023-02-08T17:30:48.571Z,8.43
2023-02-08T17:33:18.835Z,8.10
2023-02-08T17:35:54.755Z,8.23
2023-02-08T17:38:24.530Z,8.37
2023-02-08T17:40:53.823Z,8.63
2023-02-08T17:43:20.591Z,10.25
2023-02-08T17:45:49.720Z,8.47
2023-02-08T17:48:16.607Z,9.20
2023-02-08T17:50:47.707Z,8.87
2023-02-08T17:53:15.191Z,8.53
2023-02-08T17:55:43.507Z,8.37
2023-02-08T17:58:13.614Z,9.98
2023-02-08T18:00:42.792Z,8.57
2023-02-08T18:03:10.801Z,9.13
2023-02-08T18:05:40.468Z,8.73
2023-02-08T18:08:08.675Z,9.30
2023-02-08T18:10:35.429Z,9.17
2023-02-08T18:13:05.674Z,8.70
2023-02-08T18:15:32.401Z,9.73
2023-02-08T18:17:59.093Z,9.27
2023-02-08T18:20:28.327Z,8.13
2023-02-08T18:22:54.990Z,8.77
2023-02-08T18:25:22.655Z,10.20
2023-02-08T18:27:50.112Z,10.77
2023-02-08T18:30:20.219Z,10.37
2023-02-08T18:32:49.408Z,9.93
2023-02-08T18:35:16.091Z,10.00
2023-02-08T18:37:49.430Z,10.50
2023-02-08T18:40:18.994Z,9.40
2023-02-08T18:42:49.549Z,9.50
2023-02-08T18:45:17.376Z,10.20
2023-02-08T18:47:48.791Z,9.53
2023-02-08T18:50:15.543Z,9.43
2023-02-08T18:52:42.253Z,10.27
2023-02-08T18:55:11.313Z,10.27
2023-02-08T18:57:39.898Z,9.77
2023-02-08T19:00:09.666Z,9.40
2023-02-08T19:02:39.706Z,9.63
2023-02-08T19:05:06.838Z,9.97
2023-02-08T19:07:37.504Z,10.13
2023-02-08T19:10:10.229Z,10.23
2023-02-08T19:12:37.424Z,9.70
2023-02-08T19:15:04.692Z,9.47
2023-02-08T19:17:32.713Z,10.13
2023-02-08T19:20:01.663Z,9.63
2023-02-08T19:22:28.361Z,10.40
2023-02-08T19:24:55.010Z,10.33
2023-02-08T19:27:26.265Z,9.63
2023-02-08T19:29:56.207Z,9.83
2023-02-08T19:32:28.681Z,9.97
2023-02-08T19:34:55.414Z,9.50
2023-02-08T19:37:28.982Z,10.47
2023-02-08T19:39:55.686Z,9.30
2023-02-08T19:42:23.525Z,9.83
2023-02-08T19:44:50.210Z,9.07
2023-02-08T19:47:19.254Z,9.40
2023-02-08T19:49:46.012Z,9.77
2023-02-08T19:52:13.179Z,10.03
2023-02-08T19:54:39.861Z,9.97
2023-02-08T19:57:06.506Z,9.93
2023-02-08T19:59:35.539Z,9.90
2023-02-08T20:02:02.458Z,10.80
2023-02-08T20:04:32.303Z,9.17
2023-02-08T20:07:01.110Z,9.33
2023-02-08T20:09:27.798Z,10.17
2023-02-08T20:11:57.869Z,9.87
2023-02-08T20:14:26.073Z,10.00
2023-02-08T20:16:55.262Z,10.65
2023-02-08T20:19:22.038Z,10.27
2023-02-08T20:21:49.027Z,9.67
2023-02-08T20:24:16.169Z,9.77
2023-02-08T20:26:45.553Z,9.50
2023-02-08T20:29:15.680Z,10.40
2023-02-08T20:31:47.559Z,9.53
2023-02-08T20:34:21.194Z,8.77
2023-02-08T20:37:06.883Z,9.73
2023-02-08T20:39:36.254Z,9.37
2023-02-08T20:42:03.756Z,9.10
2023-02-08T20:44:31.513Z,9.47
2023-02-08T20:46:58.270Z,8.83
2023-02-08T20:49:26.485Z,8.80
2023-02-08T20:51:54.650Z,10.90
2023-02-08T20:54:24.313Z,9.67
2023-02-08T20:56:51.714Z,9.77
2023-02-08T20:59:18.572Z,9.83
2023-02-08T21:01:46.473Z,9.33
2023-02-08T21:04:13.612Z,9.10
2023-02-08T21:06:44.316Z,10.57
2023-02-08T21:09:18.435Z,9.93
2023-02-08T21:11:45.662Z,8.77
2023-02-08T21:14:19.071Z,9.60
2023-02-08T21:16:55.979Z,9.20
2023-02-08T21:19:23.541Z,9.43
2023-02-08T21:21:54.314Z,9.27
2023-02-08T21:24:21.238Z,8.13
2023-02-08T21:26:47.875Z,8.87
2023-02-08T21:29:14.554Z,9.13
2023-02-08T21:31:41.346Z,8.80
2023-02-08T21:34:11.228Z,9.20
2023-02-08T21:36:40.367Z,9.17
2023-02-08T21:39:07.196Z,9.23
2023-02-08T21:41:34.440Z,8.73
2023-02-08T21:44:04.253Z,8.90
2023-02-08T21:46:32.031Z,8.43
2023-02-08T21:49:20.268Z,8.23
2023-02-08T21:52:05.619Z,8.13
2023-02-08T21:54:43.953Z,8.77
2023-02-08T21:57:30.233Z,8.67
2023-02-08T21:59:58.983Z,8.83
2023-02-08T22:02:28.579Z,8.90
2023-02-08T22:04:57.248Z,8.17
2023-02-08T22:07:25.107Z,8.43
2023-02-08T22:09:51.989Z,8.80
2023-02-08T22:12:20.774Z,8.80
2023-02-08T22:14:49.165Z,8.73
2023-02-08T22:17:16.383Z,9.80
2023-02-08T22:19:43.299Z,8.07
2023-02-08T22:22:15.967Z,9.07
2023-02-08T22:24:42.649Z,9.67
2023-02-08T22:27:12.073Z,9.13
2023-02-08T22:29:40.990Z,9.07
2023-02-08T22:32:10.963Z,8.43
2023-02-08T22:34:40.917Z,10.63
2023-02-08T22:37:10.051Z,9.87
2023-02-08T22:39:36.981Z,8.90
2023-02-08T22:42:13.666Z,8.93
2023-02-08T22:44:42.828Z,8.30
2023-02-08T22:47:11.291Z,9.10
2023-02-08T22:49:38.639Z,10.27
2023-02-08T22:52:09.384Z,10.13
2023-02-08T22:54:36.104Z,8.83
2023-02-08T22:57:03.079Z,8.83
2023-02-08T22:59:29.814Z,9.30
2023-02-08T23:01:56.548Z,8.47
2023-02-08T23:04:23.405Z,8.53
2023-02-08T23:06:53.043Z,8.87
2023-02-08T23:09:22.494Z,9.07
2023-02-08T23:11:51.537Z,7.73
2023-02-08T23:14:18.382Z,8.80
2023-02-08T23:16:46.617Z,8.77
2023-02-08T23:19:15.502Z,8.40
2023-02-08T23:21:45.050Z,8.53
2023-02-08T23:24:14.432Z,8.57
2023-02-08T23:26:43.347Z,8.73
2023-02-08T23:29:10.058Z,11.52
2023-02-08T23:31:41.791Z,9.43
2023-02-08T23:34:08.572Z,10.03
2023-02-08T23:36:37.499Z,8.50
2023-02-08T23:39:05.636Z,8.63
2023-02-08T23:41:34.881Z,7.80
2023-02-08T23:44:04.215Z,8.87
2023-02-08T23:46:33.194Z,9.00
2023-02-08T23:48:59.840Z,8.60
2023-02-08T23:51:26.617Z,9.30
2023-02-08T23:53:54.246Z,8.33
2023-02-08T23:56:29.446Z,8.17
2023-02-08T23:58:58.082Z,8.83
